KACK/ACK METAR and TAF weather

Enter ICAO airport designator
Station Type Date Time Source
KACK METAR 2020/02/28 08:53 UTC NOAA

KACK 280853Z AUTO 26023G33KT 10SM OVC055 01/M10 A2975 RMK AO2 PK WND 25038/0839 SNB04E22 SLP074 P0000 60000 T00061100 53007


Station Type Date Time Source
KACK Decoded METAR 2020/02/28 08:53 UTC NOAA

NANTUCKET MEMORIAL AIRPORT, MA, United States (KACK) 41-15N 70-04W 16M
Feb 28, 2020 - 03:53 AM EST / 2020.02.28 0853 UTC
Wind: from the W (260 degrees) at 26 MPH (23 KT) gusting to 38 MPH (33 KT):0
Visibility: 10 mile(s):0
Sky conditions: overcast
Precipitation last hour: A trace
Temperature: 33.1 F (0.6 C)
Windchill: 19 F (-7 C):1
Dew Point: 14.0 F (-10.0 C)
Relative Humidity: 44%
Pressure (altimeter): 29.75 in. Hg (1007 hPa)
Pressure tendency: 0.02 inches (0.7 hPa) higher than three hours ago
ob: KACK 280853Z AUTO 26023G33KT 10SM OVC055 01/M10 A2975 RMK AO2 PK WND 25038/0839 SNB04E22 SLP074 P0000 60000 T00061100 53007
cycle: 9

Station Type Date Time Source
KACK TAF 2020/02/28 06:27 UTC NOAA

TAF KACK 280524Z 2806/2906 27020G35KT P6SM BKN050
FM290000 26015G23KT P6SM BKN060
FM290300 26013KT P6SM BKN060

Example: see airport list